LTFE/BJV METAR and TAF weather

Enter ICAO airport designator
Station Type Date Time Source
LTFE METAR 2020/09/19 02:20 UTC NOAA

LTFE 190220Z VRB02KT CAVOK 18/16 Q1013 NOSIG


Station Type Date Time Source
LTFE Decoded METAR 2020/09/19 02:20 UTC NOAA

Bodrum Milas Airport, Turkey (LTFE) 37-14-53N 027-40-55E
Sep 18, 2020 - 10:20 PM EDT / 2020.09.19 0220 UTC
Wind: Variable at 2 MPH (2 KT):0
Visibility: greater than 7 mile(s):0
Temperature: 64 F (18 C)
Dew Point: 60 F (16 C)
Relative Humidity: 88%
Pressure (altimeter): 29.91 in. Hg (1013 hPa)
ob: LTFE 190220Z VRB02KT CAVOK 18/16 Q1013 NOSIG
cycle: 2

Station Type Date Time Source
LTFE TAF 2020/09/18 18:03 UTC NOAA

TAF TAF LTFE 181640Z 1818/1918 VRB02KT CAVOK PROB40 1902/1906 4000 BR
BECMG 1906/1908 FEW035 BKN200
BECMG 1908/1910 26014KT
BECMG 1915/1918 VRB02KT

Example: see airport list